Hovedside
METAR-TAF:

METAR-TAF

Lufthavner :

Stord, Norge

Stord lufthavn

breddegrad: 59-48N, lengdegrad: 005-21E, høyde over havet: 49 m

Gjeldene værobservasjon

Denne rapporten ble laget for 22 minutter siden, klokken 04:20 UTC
Vind 7 kt fra Nord-nordvest
Temperatur 1°C
Luftfuktighet 75%
Trykk 1000 hPa
Sikt 10 km eller mer
Få skyer i en høyde av 4500 ft

METAR: ENSO 250420Z 33007KT 9999 FEW045 01/M03 Q1000

Tid: 06:42 (04:42 UTC)

Varsel

Denne rapporten ble laget for 2 timer og 42 minutter siden, klokken 02:00 UTC
Varsel gyldig fra 25. klokken 04 UTC til 25. klokken 12 UTC
Vind 8 kt fra Nord-nordvest
Sikt 10 km eller mer
Få skyer i en høyde av 4000 ft

TAF: ENSO 250200Z 2504/2512 33008KT 9999 FEW040

Værobservasjoner og værvarsel for over 4000 flyplasser (METAR- og TAF-rapporter).

Tilgjengelige stasjoner er representert av de røde og gule prikkene på kartet.

Hold musepekeren over prikken for å se navnet på stasjonen.

Klikk så for å se værobservasjoner og -varsler.

For å forandre kartet kan du klikke på den grønne knappen med svart kryss for å zoome inn, på den grønne knappen med strek for å zoome ut, eller på de grønne pilene for å se tilstøtende kart.


METAR-TAF: